Time;durP1;ratioP1;P1;durP2;ratioP2;P2;SDS_P1;SDS_P2;PMS_P1;PMS_P2;Temp;Humidity;BMP_temperature;BMP_pressure;BME280_temperature;BME280_humidity;BME280_pressure;Samples;Min_cycle;Max_cycle;Signal;HPM_P1;HPM_P2
2022/02/26 00:01:25;;;;;;;33.13;23.87;;;;;;;4.08;69.23;100579.59;1730149;82;21014;-73
2022/02/26 00:03:51;;;;;;;;;;;;;;;4.10;69.29;100578.96;1732813;82;21062;-75
2022/02/26 00:06:17;;;;;;;32.73;23.33;;;;;;;4.12;69.22;100578.00;1721531;82;20133;-73
2022/02/26 00:08:43;;;;;;;29.40;21.70;;;;;;;4.09;69.26;100582.59;1714226;82;20978;-74
2022/02/26 00:11:09;;;;;;;28.50;21.52;;;;;;;4.14;69.30;100586.61;1711955;82;21043;-72
2022/02/26 00:13:36;;;;;;;29.73;21.67;;;;;;;4.18;69.28;100582.71;1673077;85;21100;-74
2022/02/26 00:16:03;;;;;;;31.62;22.48;;;;;;;4.22;69.17;100592.00;1679360;84;21040;-74
2022/02/26 00:18:29;;;;;;;27.70;21.60;;;;;;;4.24;69.15;100592.23;1679234;84;21524;-74
2022/02/26 00:20:56;;;;;;;27.05;18.37;;;;;;;4.28;69.10;100589.65;1678458;84;21049;-73
2022/02/26 00:23:22;;;;;;;23.87;18.85;;;;;;;4.36;69.15;100598.17;1681181;84;21074;-73
2022/02/26 00:25:48;;;;;;;18.12;14.83;;;;;;;4.42;69.20;100604.70;1682638;84;21013;-73
2022/02/26 00:28:14;;;;;;;19.60;16.12;;;;;;;4.47;69.31;100596.70;1682161;84;21002;-73
2022/02/26 00:30:40;;;;;;;22.00;15.03;;;;;;;4.48;69.50;100598.38;1682505;84;21572;-73
2022/02/26 00:33:06;;;;;;;21.80;15.80;;;;;;;4.47;69.72;100611.22;1679505;83;20994;-72
2022/02/26 00:35:32;;;;;;;;;;;;;;;4.42;70.03;100608.16;1695547;83;21097;-75
2022/02/26 00:37:59;;;;;;;25.27;13.43;;;;;;;4.38;70.29;100608.10;1695902;83;20208;-74
2022/02/26 00:40:26;;;;;;;17.75;12.50;;;;;;;4.28;70.88;100616.03;1695755;83;21046;-73
2022/02/26 00:42:52;;;;;;;14.03;9.98;;;;;;;4.32;70.91;100617.09;1695786;83;21508;-74
2022/02/26 00:45:18;;;;;;;15.58;10.95;;;;;;;4.31;71.36;100616.23;1712028;82;20973;-73
2022/02/26 00:47:44;;;;;;;14.35;10.15;;;;;;;4.33;71.24;100617.41;1726419;82;21076;-73
2022/02/26 00:50:11;;;;;;;15.98;10.58;;;;;;;4.25;71.67;100624.72;1726316;82;20989;-73
2022/02/26 00:52:38;;;;;;;11.23;9.33;;;;;;;4.20;71.94;100621.20;1725865;82;21025;-73
2022/02/26 00:55:06;;;;;;;10.98;8.68;;;;;;;4.19;72.03;100631.88;1725183;82;21024;-73
2022/02/26 00:57:34;;;;;;;9.13;8.00;;;;;;;4.18;72.20;100631.52;1699508;83;21069;-73
2022/02/26 01:00:03;;;;;;;7.47;6.70;;;;;;;4.20;72.06;100631.75;1706552;83;20988;-74
2022/02/26 01:02:30;;;;;;;9.17;8.27;;;;;;;4.24;72.06;100631.81;1708219;83;21001;-74
2022/02/26 01:04:56;;;;;;;10.50;7.55;;;;;;;4.24;71.99;100637.58;1709025;83;21084;-75
2022/02/26 01:07:22;;;;;;;9.43;7.97;;;;;;;4.19;72.01;100638.48;1709072;83;21121;-73
2022/02/26 01:09:48;;;;;;;9.88;7.30;;;;;;;4.17;72.05;100643.89;1709609;83;21057;-73
2022/02/26 01:12:15;;;;;;;7.95;6.65;;;;;;;4.13;72.17;100647.78;1708634;82;21542;-73
2022/02/26 01:14:43;;;;;;;9.10;7.47;;;;;;;4.12;72.23;100650.55;1708689;83;21044;-74
2022/02/26 01:17:13;;;;;;;9.27;7.57;;;;;;;4.14;72.10;100659.16;1696502;84;20991;-75
2022/02/26 01:19:40;;;;;;;8.03;7.03;;;;;;;4.12;72.03;100657.97;1708823;83;21664;-74
2022/02/26 01:22:07;;;;;;;7.47;6.60;;;;;;;4.09;72.00;100657.78;1709379;82;21022;-72
2022/02/26 01:24:34;;;;;;;8.20;7.33;;;;;;;4.02;72.27;100655.83;1725883;82;21029;-74
2022/02/26 01:27:00;;;;;;;9.97;7.23;;;;;;;3.97;72.48;100658.86;1726574;82;21065;-74
2022/02/26 01:29:28;;;;;;;6.70;5.73;;;;;;;3.93;72.47;100664.07;1728755;82;21528;-73
2022/02/26 01:31:55;;;;;;;7.53;6.03;;;;;;;3.94;72.65;100667.07;1726140;82;20996;-74
2022/02/26 01:34:22;;;;;;;5.27;4.87;;;;;;;3.94;72.62;100667.07;1718434;82;21255;-72
2022/02/26 01:36:48;;;;;;;6.58;4.80;;;;;;;3.90;72.89;100673.59;1709009;82;21072;-73
2022/02/26 01:39:14;;;;;;;5.00;4.37;;;;;;;3.81;73.09;100683.64;1708569;83;21135;-73
2022/02/26 01:41:41;;;;;;;;;;;;;;;3.76;73.46;100672.66;1683083;84;21077;-75
2022/02/26 01:44:07;;;;;;;4.47;4.07;;;;;;;3.67;73.81;100683.06;1708276;83;20225;-74
2022/02/26 01:46:35;;;;;;;4.87;4.37;;;;;;;3.65;73.90;100679.69;1705631;83;21124;-76
2022/02/26 01:49:01;;;;;;;5.47;3.57;;;;;;;3.70;73.74;100677.98;1645866;85;21106;-75
2022/02/26 01:51:28;;;;;;;7.35;4.97;;;;;;;3.72;73.85;100684.45;1713428;82;20998;-75
2022/02/26 01:54:01;;;;;;;4.42;3.70;;;;;;;3.64;74.13;100678.53;1709115;82;20993;-74
2022/02/26 01:56:28;;;;;;;5.07;4.40;;;;;;;3.63;74.05;100682.13;1676083;84;21510;-74
2022/02/26 01:58:55;;;;;;;3.83;3.25;;;;;;;3.62;74.12;100690.53;1709148;82;21585;-74
2022/02/26 02:01:21;;;;;;;5.45;3.80;;;;;;;3.63;74.17;100690.86;1724684;82;21029;-73
2022/02/26 02:03:47;;;;;;;4.95;4.42;;;;;;;3.66;73.98;100685.83;1746438;82;21080;-74
2022/02/26 02:06:15;;;;;;;4.47;2.70;;;;;;;3.71;73.91;100695.45;1736068;81;21197;-74
2022/02/26 02:08:43;;;;;;;4.00;3.70;;;;;;;3.77;73.87;100696.72;1755261;82;21021;-74
2022/02/26 02:11:10;;;;;;;3.90;3.60;;;;;;;3.73;73.91;100702.78;1753512;82;21025;-74
2022/02/26 02:13:37;;;;;;;;;;;;;;;3.64;74.04;100701.77;1710906;82;21034;-73
2022/02/26 02:16:05;;;;;;;3.93;3.30;;;;;;;3.52;74.61;100713.37;1708250;82;20241;-75
2022/02/26 02:18:32;;;;;;;3.37;3.07;;;;;;;3.48;74.66;100707.56;1711396;82;21035;-75
2022/02/26 02:20:58;;;;;;;3.47;3.17;;;;;;;3.47;74.85;100716.42;1721252;82;21010;-73
2022/02/26 02:23:26;;;;;;;3.95;3.55;;;;;;;3.48;74.78;100716.78;1704758;82;21013;-72
2022/02/26 02:25:54;;;;;;;3.03;2.77;;;;;;;3.49;74.84;100724.20;1727092;82;21025;-73
2022/02/26 02:28:23;;;;;;;4.17;3.80;;;;;;;3.44;74.98;100723.27;1727716;82;21028;-73
2022/02/26 02:30:49;;;;;;;4.57;3.67;;;;;;;3.43;75.06;100726.88;1718077;81;21024;-72
2022/02/26 02:33:16;;;;;;;4.47;3.80;;;;;;;3.41;75.21;100729.28;1732570;81;21009;-74
2022/02/26 02:35:43;;;;;;;4.95;3.25;;;;;;;3.43;75.21;100721.61;1754925;80;21015;-72
2022/02/26 02:38:14;;;;;;;5.93;3.80;;;;;;;3.43;75.22;100726.88;1762160;80;21011;-73
2022/02/26 02:40:43;;;;;;;3.03;2.77;;;;;;;3.42;75.22;100726.52;1752828;80;21020;-74
2022/02/26 02:43:10;;;;;;;4.23;3.80;;;;;;;3.43;75.37;100730.01;1760188;80;20989;-74
2022/02/26 02:45:37;;;;;;;4.85;4.37;;;;;;;3.43;75.29;100737.91;1740006;80;21515;-74
2022/02/26 02:48:05;;;;;;;3.97;3.43;;;;;;;3.41;75.43;100741.13;1727786;81;21072;-75
2022/02/26 02:50:32;;;;;;;4.13;3.73;;;;;;;3.37;75.60;100739.73;1718210;82;21050;-74
2022/02/26 02:52:58;;;;;;;4.93;3.20;;;;;;;3.28;75.95;100741.38;1724644;82;21018;-73
2022/02/26 02:55:25;;;;;;;4.03;3.67;;;;;;;3.23;76.22;100745.70;1722292;83;21041;-76
2022/02/26 02:57:52;;;;;;;3.90;3.58;;;;;;;3.22;76.02;100750.64;1711195;82;21033;-73
2022/02/26 03:00:20;;;;;;;3.60;3.23;;;;;;;3.26;76.03;100748.58;1710512;82;21056;-73
2022/02/26 03:02:47;;;;;;;5.10;3.87;;;;;;;3.29;76.04;100757.03;1727172;83;20990;-73
2022/02/26 03:05:15;;;;;;;3.90;3.60;;;;;;;3.27;76.13;100761.59;1726191;83;21132;-75
2022/02/26 03:07:42;;;;;;;3.87;3.47;;;;;;;3.25;76.18;100762.21;1727463;83;21002;-74
2022/02/26 03:10:10;;;;;;;4.57;4.03;;;;;;;3.22;76.58;100759.00;1726645;83;20962;-75
2022/02/26 03:12:38;;;;;;;4.03;3.63;;;;;;;3.20;76.45;100767.52;1761518;80;20990;-73
2022/02/26 03:15:07;;;;;;;3.72;3.08;;;;;;;3.23;76.48;100768.09;1763071;80;21470;-74
2022/02/26 03:17:36;;;;;;;4.37;3.80;;;;;;;3.21;76.78;100779.25;1726583;83;21008;-73
2022/02/26 03:20:05;;;;;;;4.27;3.87;;;;;;;3.20;76.56;100771.02;1700621;84;21151;-74
2022/02/26 03:22:31;;;;;;;4.13;3.73;;;;;;;3.16;76.77;100776.16;1707905;83;21058;-74
2022/02/26 03:24:57;;;;;;;4.35;3.90;;;;;;;3.15;76.93;100773.68;1705303;82;21057;-74
2022/02/26 03:27:23;;;;;;;6.05;5.42;;;;;;;3.11;76.96;100777.05;1717005;81;21032;-74
2022/02/26 03:29:50;;;;;;;5.90;5.20;;;;;;;3.06;77.44;100781.86;1729759;81;21659;-74
2022/02/26 03:32:16;;;;;;;4.97;4.55;;;;;;;3.04;77.49;100780.67;1730831;82;20957;-73
2022/02/26 03:34:43;;;;;;;6.78;5.22;;;;;;;3.05;77.52;100784.12;1675542;83;21037;-73
2022/02/26 03:37:10;;;;;;;3.87;3.50;;;;;;;3.04;77.54;100787.25;1686707;83;20985;-72
2022/02/26 03:39:36;;;;;;;7.23;4.67;;;;;;;3.02;77.72;100796.26;1671341;84;21073;-74
2022/02/26 03:42:06;;;;;;;5.50;4.80;;;;;;;2.95;77.94;100795.09;1668424;83;21030;-73
2022/02/26 03:44:34;;;;;;;4.90;4.40;;;;;;;2.91;78.19;100802.41;1689541;83;21016;-73
2022/02/26 03:47:03;;;;;;;6.33;5.03;;;;;;;2.91;78.29;100805.05;1678608;84;21036;-74
2022/02/26 03:49:29;;;;;;;4.93;4.03;;;;;;;2.95;78.08;100807.77;1686103;83;21036;-74
2022/02/26 03:51:57;;;;;;;5.97;5.10;;;;;;;2.98;78.06;100808.02;1680742;83;21519;-74
2022/02/26 03:54:23;;;;;;;5.57;4.97;;;;;;;3.03;77.99;100806.67;1679347;85;20997;-73
2022/02/26 03:56:51;;;;;;;5.12;4.62;;;;;;;3.05;77.87;100814.42;1666614;85;21089;-73
2022/02/26 03:59:17;;;;;;;6.97;6.10;;;;;;;2.98;77.92;100814.60;1631657;86;21052;-75
2022/02/26 04:01:44;;;;;;;6.30;5.70;;;;;;;2.90;78.15;100822.65;1661627;84;21027;-74
2022/02/26 04:04:10;;;;;;;5.75;5.00;;;;;;;2.83;78.31;100821.47;1723509;82;20992;-73
2022/02/26 04:06:37;;;;;;;5.30;4.80;;;;;;;2.83;78.55;100826.73;1712885;82;21023;-75
2022/02/26 04:09:05;;;;;;;6.50;5.15;;;;;;;2.81;78.64;100840.52;1719590;82;21051;-73
2022/02/26 04:11:33;;;;;;;5.30;4.80;;;;;;;2.80;78.78;100841.46;1699192;82;21136;-72
2022/02/26 04:13:59;;;;;;;7.30;6.23;;;;;;;2.72;78.92;100842.09;1709633;82;21040;-73
2022/02/26 04:16:27;;;;;;;7.53;6.65;;;;;;;2.64;79.07;100851.59;1709097;82;21090;-74
2022/02/26 04:18:54;;;;;;;6.37;5.77;;;;;;;2.58;79.29;100852.06;1708984;82;21047;-75
2022/02/26 04:21:20;;;;;;;5.95;5.00;;;;;;;2.57;79.37;100856.50;1684958;82;21021;-73
2022/02/26 04:23:46;;;;;;;6.42;5.47;;;;;;;2.57;79.39;100864.39;1706772;82;21087;-75
2022/02/26 04:26:13;;;;;;;5.40;4.90;;;;;;;2.56;79.39;100871.09;1708163;82;21065;-73
2022/02/26 04:28:41;;;;;;;7.10;5.30;;;;;;;2.53;79.53;100867.75;1706023;82;21009;-73
2022/02/26 04:31:07;;;;;;;;;;;;;;;2.54;79.63;100875.16;1710963;82;21141;-73
2022/02/26 04:33:34;;;;;;;7.13;6.00;;;;;;;2.56;79.84;100880.30;1708622;82;20536;-73
2022/02/26 04:36:00;;;;;;;8.10;6.15;;;;;;;2.40;80.48;100882.84;1711369;82;21013;-76
2022/02/26 04:38:29;;;;;;;6.67;6.08;;;;;;;2.30;80.54;100886.69;1706985;82;21006;-73
2022/02/26 04:40:58;;;;;;;7.03;6.33;;;;;;;2.28;80.89;100889.06;1689210;82;21126;-75
2022/02/26 04:43:25;;;;;;;6.20;5.60;;;;;;;2.31;80.94;100898.88;1708812;82;21469;-74
2022/02/26 04:45:51;;;;;;;8.00;5.77;;;;;;;2.33;81.15;100899.58;1734413;81;21088;-74
2022/02/26 04:48:18;;;;;;;8.75;6.62;;;;;;;2.35;81.21;100906.05;1741081;81;21016;-74
2022/02/26 04:50:45;;;;;;;6.90;5.62;;;;;;;2.40;81.25;100919.69;1751292;81;21071;-74
2022/02/26 04:53:11;;;;;;;7.50;5.77;;;;;;;2.44;81.27;100930.31;1748686;81;21197;-74
2022/02/26 04:55:38;;;;;;;6.40;5.60;;;;;;;2.41;81.39;100924.45;1748165;81;20994;-75
2022/02/26 04:58:05;;;;;;;10.03;7.28;;;;;;;2.34;81.40;100933.33;1741465;81;21492;-73
2022/02/26 05:00:31;;;;;;;9.00;6.33;;;;;;;2.34;81.40;100933.33;1738888;81;21980;-73
2022/02/26 05:02:57;;;;;;;6.08;5.20;;;;;;;2.39;81.62;100947.42;1731246;81;21049;-73
2022/02/26 05:05:25;;;;;;;6.90;6.20;;;;;;;2.40;81.49;100949.11;1747049;81;21559;-73
2022/02/26 05:07:51;;;;;;;8.43;7.28;;;;;;;2.41;81.53;100945.51;1746065;81;21092;-73
2022/02/26 05:10:18;;;;;;;8.45;7.65;;;;;;;2.40;81.60;100943.85;1735487;81;21069;-74
2022/02/26 05:12:44;;;;;;;10.10;7.80;;;;;;;2.39;81.65;100957.46;1747319;81;21054;-74
2022/02/26 05:15:15;;;;;;;8.38;7.53;;;;;;;2.39;81.60;100963.21;1748414;81;21132;-76
2022/02/26 05:17:42;;;;;;;8.33;7.23;;;;;;;2.45;81.45;100971.48;1733228;81;21053;-74
2022/02/26 05:20:10;;;;;;;7.80;6.95;;;;;;;2.44;81.23;100971.59;1748532;81;20971;-75
2022/02/26 05:22:37;;;;;;;9.00;6.90;;;;;;;2.42;81.32;100967.76;1741461;80;21025;-74
2022/02/26 05:25:06;;;;;;;9.28;7.85;;;;;;;2.44;81.52;100968.96;1710529;83;21036;-74
2022/02/26 05:27:33;;;;;;;10.03;8.23;;;;;;;2.41;81.57;100973.13;1710721;83;21442;-74
2022/02/26 05:30:00;;;;;;;9.73;7.03;;;;;;;2.32;81.60;100974.70;1716937;83;21018;-75
2022/02/26 05:32:26;;;;;;;9.45;8.38;;;;;;;2.31;82.00;100974.33;1713999;83;21590;-75
2022/02/26 05:34:52;;;;;;;9.30;7.85;;;;;;;2.37;81.90;100982.23;1734091;82;21370;-75
2022/02/26 05:37:20;;;;;;;9.93;8.18;;;;;;;2.44;81.61;100982.95;1709908;82;21051;-73
2022/02/26 05:39:47;;;;;;;10.53;7.53;;;;;;;2.53;81.33;100987.49;1709947;82;21016;-73
2022/02/26 05:42:15;;;;;;;9.07;8.17;;;;;;;2.56;81.15;100989.03;1732974;82;21033;-73
2022/02/26 05:44:41;;;;;;;9.73;8.53;;;;;;;2.57;81.13;100993.84;1712447;82;21072;-73
2022/02/26 05:47:08;;;;;;;7.95;7.17;;;;;;;2.58;81.20;100992.87;1711931;82;21095;-76
2022/02/26 05:49:35;;;;;;;10.05;8.65;;;;;;;2.55;80.94;101003.17;1702885;82;20995;-75
2022/02/26 05:52:02;;;;;;;11.23;8.20;;;;;;;2.57;80.81;101003.05;1692033;83;21491;-73
2022/02/26 05:54:28;;;;;;;13.80;9.07;;;;;;;2.63;80.98;100995.98;1697641;83;21065;-72
2022/02/26 05:56:54;;;;;;;11.18;8.20;;;;;;;2.80;81.12;101002.06;1702816;84;21040;-73
2022/02/26 05:59:21;;;;;;;10.63;8.53;;;;;;;2.95;80.49;101001.33;1719187;83;21125;-74
2022/02/26 06:01:47;;;;;;;9.45;8.55;;;;;;;3.14;80.03;101006.44;1717612;81;21052;-75
2022/02/26 06:04:13;;;;;;;11.83;8.60;;;;;;;3.35;79.83;101006.00;1717446;83;21031;-74
2022/02/26 06:06:39;;;;;;;9.80;8.55;;;;;;;3.53;78.43;101014.70;1724224;83;21033;-76
2022/02/26 06:09:05;;;;;;;10.23;8.30;;;;;;;3.67;77.16;101019.20;1724885;83;21221;-75
2022/02/26 06:11:31;;;;;;;10.65;9.58;;;;;;;3.74;76.55;101026.11;1716233;82;21316;-72
2022/02/26 06:13:58;;;;;;;10.63;8.07;;;;;;;3.67;75.80;101023.16;1722986;81;21019;-72
2022/02/26 06:16:24;;;;;;;11.43;8.78;;;;;;;3.51;76.31;101026.69;1712392;82;21037;-76
2022/02/26 06:18:50;;;;;;;12.37;9.18;;;;;;;3.36;76.75;101034.53;1710366;84;21025;-74
2022/02/26 06:21:17;;;;;;;8.33;7.42;;;;;;;3.25;77.21;101032.76;1732436;82;20986;-74
2022/02/26 06:23:42;;;;;;;12.15;9.30;;;;;;;3.25;77.37;101041.98;1749049;80;21033;-76
2022/02/26 06:26:08;;;;;;;12.10;8.83;;;;;;;3.24;77.66;101041.61;1739376;82;21092;-74
2022/02/26 06:28:34;;;;;;;9.08;8.18;;;;;;;3.26;77.88;101044.50;1740893;81;21042;-74
2022/02/26 06:31:00;;;;;;;8.65;7.90;;;;;;;3.37;78.00;101049.37;1745775;81;21058;-75
2022/02/26 06:33:26;;;;;;;14.25;9.58;;;;;;;3.39;76.98;101052.25;1740403;81;21057;-75
2022/02/26 06:35:52;;;;;;;11.05;8.55;;;;;;;3.47;76.96;101053.78;1747123;81;21002;-74
2022/02/26 06:38:19;;;;;;;10.53;8.47;;;;;;;3.53;76.38;101055.56;1733374;82;21354;-76
2022/02/26 06:40:45;;;;;;;11.85;7.83;;;;;;;3.48;76.21;101056.78;1723352;82;21469;-74
2022/02/26 06:43:12;;;;;;;10.50;8.18;;;;;;;3.39;76.21;101060.63;1723418;83;21053;-74
2022/02/26 06:45:38;;;;;;;11.47;9.13;;;;;;;3.26;76.54;101062.94;1752414;81;21124;-74
2022/02/26 06:48:05;;;;;;;9.88;7.62;;;;;;;3.33;76.74;101069.03;1740271;81;21128;-74
2022/02/26 06:50:31;;;;;;;;;;;;;;;3.42;75.92;101068.29;1764606;81;21011;-74
2022/02/26 06:52:57;;;;;;;9.10;7.87;;;;;;;3.51;76.35;101070.19;1749853;81;20112;-75
2022/02/26 06:55:23;;;;;;;11.00;7.62;;;;;;;3.55;75.35;101076.88;1704451;84;21153;-75
2022/02/26 06:57:50;;;;;;;7.78;7.08;;;;;;;3.49;75.05;101080.02;1688465;84;21026;-74
2022/02/26 07:00:17;;;;;;;9.60;8.33;;;;;;;3.44;74.98;101082.17;1687428;84;21026;-76
2022/02/26 07:02:45;;;;;;;11.90;8.30;;;;;;;3.44;74.88;101086.13;1745253;81;21508;-74
2022/02/26 07:05:11;;;;;;;9.67;7.27;;;;;;;3.49;74.65;101087.44;1758221;81;21093;-76
2022/02/26 07:07:37;;;;;;;8.93;6.67;;;;;;;3.64;74.39;101090.63;1763400;81;20990;-73
2022/02/26 07:10:05;;;;;;;9.95;7.20;;;;;;;3.73;74.15;101096.11;1746111;81;21545;-75
2022/02/26 07:12:31;;;;;;;9.63;7.70;;;;;;;3.76;73.87;101101.14;1745008;81;21591;-76
2022/02/26 07:14:57;;;;;;;10.78;8.00;;;;;;;3.77;72.94;101098.38;1741355;81;21358;-77
2022/02/26 07:17:24;;;;;;;8.20;7.40;;;;;;;3.77;72.52;101102.34;1737300;81;21345;-75
2022/02/26 07:19:50;;;;;;;10.88;7.97;;;;;;;3.86;71.98;101109.95;1739460;81;21128;-75
2022/02/26 07:22:18;;;;;;;9.47;6.67;;;;;;;4.00;71.99;101109.67;1733245;81;21025;-75
2022/02/26 07:24:44;;;;;;;8.38;6.95;;;;;;;4.14;71.28;101113.80;1706296;82;21152;-77
2022/02/26 07:27:13;;;;;;;10.15;7.20;;;;;;;4.19;71.09;101118.71;1707255;83;21009;-76
2022/02/26 07:29:38;;;;;;;11.00;7.40;;;;;;;4.27;70.72;101118.89;1673556;82;21053;-74
2022/02/26 07:32:05;;;;;;;9.73;7.17;;;;;;;4.35;70.00;101119.58;1722642;83;21001;-76
2022/02/26 07:34:31;;;;;;;;;;;;;;;4.41;69.79;101124.36;1739411;81;20985;-75
2022/02/26 07:36:57;;;;;;;6.20;5.47;;;;;;;4.45;69.66;101128.41;1748058;81;20395;-75
2022/02/26 07:39:23;;;;;;;8.50;6.25;;;;;;;4.51;69.16;101131.84;1751399;81;21564;-75
2022/02/26 07:41:49;;;;;;;12.18;8.70;;;;;;;4.66;68.52;101127.07;1749387;81;21008;-74
2022/02/26 07:44:15;;;;;;;9.70;8.18;;;;;;;4.70;68.39;101131.12;1736149;81;21048;-74
2022/02/26 07:46:42;;;;;;;12.43;6.73;;;;;;;4.75;67.99;101138.17;1708932;82;21048;-76
2022/02/26 07:49:08;;;;;;;9.05;7.40;;;;;;;4.79;67.41;101136.11;1716235;82;21064;-74
2022/02/26 07:51:34;;;;;;;8.35;6.03;;;;;;;4.81;67.46;101134.17;1706964;82;21007;-77
2022/02/26 07:54:00;;;;;;;7.70;6.78;;;;;;;4.83;66.91;101134.87;1717635;83;21165;-75
2022/02/26 07:56:27;;;;;;;11.35;6.60;;;;;;;4.85;67.01;101133.77;1723599;82;21024;-76
2022/02/26 07:58:54;;;;;;;8.83;6.43;;;;;;;4.92;66.75;101142.51;1684282;85;21582;-74
2022/02/26 08:01:20;;;;;;;;;;;;;;;4.99;66.44;101141.84;1698666;83;21554;-73
2022/02/26 08:03:46;;;;;;;7.37;5.87;;;;;;;5.07;65.97;101136.73;1678803;84;20421;-75
2022/02/26 08:06:13;;;;;;;;;;;;;;;5.07;65.16;101150.43;1695512;84;21642;-75
2022/02/26 08:08:39;;;;;;;8.20;5.73;;;;;;;5.14;65.33;101144.97;1686905;84;20198;-75
2022/02/26 08:11:05;;;;;;;6.42;5.80;;;;;;;5.21;64.46;101151.87;1744324;81;21615;-74
2022/02/26 08:13:32;;;;;;;;;;;;;;;5.22;63.98;101151.73;1757949;82;22093;-76
2022/02/26 08:15:58;;;;;;;5.10;4.20;;;;;;;5.21;63.73;101152.70;1754326;81;20118;-76
2022/02/26 08:18:24;;;;;;;5.70;4.85;;;;;;;5.18;63.90;101161.38;1747922;82;20997;-76
2022/02/26 08:20:50;;;;;;;8.10;5.53;;;;;;;5.23;63.74;101156.53;1746517;81;21377;-76
2022/02/26 08:23:17;;;;;;;8.00;4.87;;;;;;;5.31;62.90;101161.15;1726703;81;20970;-77
2022/02/26 08:25:43;;;;;;;;;;;;;;;5.29;61.92;101158.63;1708604;83;21095;-75
2022/02/26 08:28:09;;;;;;;4.60;4.20;;;;;;;5.31;61.99;101160.66;1711343;83;20156;-74
2022/02/26 08:30:35;;;;;;;7.33;5.37;;;;;;;5.33;62.25;101155.23;1715732;83;21034;-76
2022/02/26 08:33:02;;;;;;;;;;;;;;;5.44;62.92;101152.49;1719162;83;21113;-76
2022/02/26 08:35:28;;;;;;;7.50;5.37;;;;;;;5.57;62.94;101153.58;1715602;83;20138;-76
2022/02/26 08:37:54;;;;;;;10.10;6.37;;;;;;;5.64;62.76;101154.71;1716440;83;21042;-76
2022/02/26 08:40:21;;;;;;;7.95;5.40;;;;;;;5.75;62.72;101155.09;1715317;82;21029;-77
2022/02/26 08:42:47;;;;;;;8.30;5.22;;;;;;;5.87;62.21;101162.41;1713035;82;21002;-77
2022/02/26 08:45:15;;;;;;;7.78;5.37;;;;;;;5.95;61.97;101163.44;1703986;83;21552;-76
2022/02/26 08:47:42;;;;;;;7.40;5.10;;;;;;;6.07;61.75;101161.48;1713332;82;21195;-75
2022/02/26 08:50:13;;;;;;;6.87;5.13;;;;;;;6.20;61.47;101163.86;1684624;84;21050;-76
2022/02/26 08:52:42;;;;;;;9.57;5.73;;;;;;;6.32;60.90;101160.08;1706926;82;21636;-77
2022/02/26 08:55:09;;;;;;;10.07;5.33;;;;;;;6.40;60.58;101157.58;1711055;82;21077;-77
2022/02/26 08:57:36;;;;;;;5.47;4.00;;;;;;;6.45;59.85;101165.59;1735134;81;21105;-76
2022/02/26 09:02:45;;;;;;;11.13;4.53;;;;;;;6.51;59.10;101156.58;1747890;80;22217;-76
2022/02/26 09:05:12;;;;;;;8.93;4.58;;;;;;;6.50;59.32;101162.00;1732748;82;21037;-77
2022/02/26 09:07:37;;;;;;;;;;;;;;;6.59;58.58;101158.51;1749393;82;21640;-77
2022/02/26 09:10:06;;;;;;;4.57;4.13;;;;;;;6.67;58.26;101152.03;1726035;81;20136;-76
2022/02/26 09:12:32;;;;;;;5.97;4.10;;;;;;;6.71;58.01;101159.20;1728292;82;21075;-78
2022/02/26 09:14:59;;;;;;;5.25;3.60;;;;;;;6.78;57.44;101152.33;1725333;82;21085;-76
2022/02/26 09:17:25;;;;;;;4.10;3.35;;;;;;;6.86;56.90;101156.94;1739306;82;21033;-76
2022/02/26 09:19:51;;;;;;;9.90;3.50;;;;;;;6.88;56.19;101158.45;1748480;81;21034;-77
2022/02/26 09:22:18;;;;;;;39.27;6.17;;;;;;;6.89;56.40;101171.20;1705585;82;21028;-76
2022/02/26 09:24:45;;;;;;;9.20;3.97;;;;;;;6.91;56.12;101162.63;1730864;81;21055;-76
2022/02/26 09:27:11;;;;;;;9.00;4.30;;;;;;;6.95;55.65;101154.72;1752662;82;20994;-75
2022/02/26 09:29:38;;;;;;;119.45;13.80;;;;;;;6.99;54.94;101158.78;1746912;81;21213;-78
2022/02/26 09:32:04;;;;;;;14.30;3.67;;;;;;;6.99;55.22;101158.28;1746838;81;21505;-77
2022/02/26 09:34:31;;;;;;;41.13;7.47;;;;;;;7.02;54.90;101170.40;1743708;80;21488;-76
2022/02/26 09:36:57;;;;;;;7.62;2.30;;;;;;;7.03;54.72;101162.80;1737345;81;21022;-78
2022/02/26 09:39:23;;;;;;;11.08;1.75;;;;;;;7.06;54.26;101157.20;1727239;81;21065;-78
2022/02/26 09:41:50;;;;;;;7.92;1.10;;;;;;;7.12;51.60;101160.61;1725267;81;21058;-76
2022/02/26 09:44:20;;;;;;;9.90;1.57;;;;;;;7.12;51.60;101160.61;1707759;81;21116;-77
2022/02/26 09:46:47;;;;;;;11.33;1.40;;;;;;;7.15;51.38;101161.63;1727667;81;21513;-76
2022/02/26 09:49:13;;;;;;;;;;;;;;;7.21;51.10;101173.47;1733009;81;21062;-77
2022/02/26 09:51:41;;;;;;;8.07;1.03;;;;;;;7.20;49.13;101168.66;1731371;81;20454;-77
2022/02/26 09:54:09;;;;;;;5.40;0.80;;;;;;;7.15;50.21;101174.89;1728159;81;21096;-74
2022/02/26 09:56:37;;;;;;;3.57;0.73;;;;;;;7.19;49.22;101175.44;1744529;81;20999;-76
2022/02/26 09:59:04;;;;;;;11.20;0.70;;;;;;;7.22;49.48;101173.83;1744367;81;21537;-78
2022/02/26 10:01:31;;;;;;;5.40;0.70;;;;;;;7.28;49.09;101185.16;1742999;81;21629;-77
2022/02/26 10:04:07;;;;;;;3.42;0.50;;;;;;;7.37;48.63;101181.64;1757274;82;21122;-78
2022/02/26 10:06:34;;;;;;;1.53;0.70;;;;;;;7.47;48.30;101176.28;1731532;81;21575;-77
2022/02/26 10:09:02;;;;;;;2.70;0.40;;;;;;;7.55;47.65;101176.41;1739730;82;21137;-78
2022/02/26 10:11:33;;;;;;;2.03;0.43;;;;;;;7.60;47.28;101182.08;1740026;80;21044;-77
2022/02/26 10:14:17;;;;;;;2.07;0.30;;;;;;;7.68;47.51;101183.98;1729742;82;21540;-77
2022/02/26 10:16:53;;;;;;;0.50;0.20;;;;;;;7.80;46.86;101188.12;1710492;83;21081;-76
2022/02/26 10:19:26;;;;;;;4.42;0.20;;;;;;;7.79;44.59;101188.26;1732158;81;21092;-77
2022/02/26 10:21:59;;;;;;;5.97;0.70;;;;;;;7.67;44.73;101193.45;1732337;81;21071;-77
2022/02/26 10:24:28;;;;;;;1.03;0.93;;;;;;;7.57;45.05;101193.00;1730615;81;21048;-78
2022/02/26 10:27:00;;;;;;;1.70;0.20;;;;;;;7.54;44.85;101193.28;1725969;81;21562;-77
2022/02/26 10:29:27;;;;;;;1.03;0.10;;;;;;;7.50;43.41;101197.22;1707644;81;21018;-77
2022/02/26 10:31:58;;;;;;;1.40;0.40;;;;;;;7.53;44.14;101194.76;1723796;81;20984;-76
2022/02/26 10:34:38;;;;;;;0.83;0.43;;;;;;;7.60;43.72;101201.14;1719823;83;21455;-77
2022/02/26 10:37:10;;;;;;;;;;;;;;;7.66;43.55;101195.73;1724620;81;21053;-77
2022/02/26 10:39:47;;;;;;;1.40;0.40;;;;;;;7.72;43.64;101197.80;1729338;81;20108;-77
2022/02/26 10:42:26;;;;;;;0.80;0.20;;;;;;;7.72;43.83;101203.96;1729716;81;21001;-77
2022/02/26 10:45:10;;;;;;;2.50;0.17;;;;;;;7.75;42.97;101208.12;1722005;81;21631;-77
2022/02/26 10:47:44;;;;;;;5.67;0.50;;;;;;;7.76;41.55;101204.00;1708096;83;21490;-76
2022/02/26 10:50:23;;;;;;;2.27;0.10;;;;;;;7.82;42.33;101206.55;1667268;84;21437;-78
2022/02/26 10:53:05;;;;;;;1.77;0.10;;;;;;;7.91;41.85;101207.45;1659725;84;21049;-76
2022/02/26 10:55:59;;;;;;;6.33;0.33;;;;;;;7.95;41.96;101198.23;1683899;84;21045;-77
2022/02/26 10:58:28;;;;;;;2.30;0.20;;;;;;;7.92;39.99;101200.67;1676462;84;21014;-77
2022/02/26 11:01:04;;;;;;;1.60;0.10;;;;;;;7.87;41.14;101200.28;1666003;84;21018;-78
2022/02/26 11:03:30;;;;;;;12.13;0.27;;;;;;;7.91;41.55;101195.04;1622431;87;21073;-75
2022/02/26 11:06:00;;;;;;;1.80;0.50;;;;;;;7.94;40.88;101189.91;1623070;87;21131;-77
2022/02/26 11:08:26;;;;;;;0.60;0.10;;;;;;;7.90;40.88;101198.67;1623133;87;21768;-77
2022/02/26 11:10:53;;;;;;;;;;;;;;;7.86;41.18;101199.95;1638501;87;21603;-77
2022/02/26 11:13:22;;;;;;;0.50;0.30;;;;;;;7.82;41.08;101203.89;1646712;86;20102;-79
2022/02/26 11:15:55;;;;;;;4.30;0.73;;;;;;;7.76;41.66;101200.48;1630142;87;21150;-74
2022/02/26 11:18:25;;;;;;;3.67;0.83;;;;;;;7.79;41.60;101202.86;1624484;86;21573;-76
2022/02/26 11:20:51;;;;;;;3.83;0.20;;;;;;;7.80;41.72;101195.25;1650796;85;21151;-76
2022/02/26 11:23:18;;;;;;;1.30;0.10;;;;;;;7.80;41.69;101206.70;1653548;84;21586;-77
2022/02/26 11:25:46;;;;;;;1.43;0.10;;;;;;;7.83;42.13;101214.84;1620419;86;21174;-75
2022/02/26 11:28:15;;;;;;;3.67;0.47;;;;;;;7.84;41.67;101215.20;1649321;85;22244;-76
2022/02/26 11:30:50;;;;;;;6.33;0.20;;;;;;;7.84;41.66;101216.52;1627609;87;21039;-75
2022/02/26 11:33:17;;;;;;;1.63;0.17;;;;;;;7.80;41.72;101215.16;1656527;84;21799;-78
2022/02/26 11:35:54;;;;;;;1.30;0.37;;;;;;;7.76;41.67;101205.80;1627834;85;21053;-76
2022/02/26 11:38:22;;;;;;;2.65;0.40;;;;;;;7.77;41.64;101212.79;1653013;84;21646;-77